Time;durP1;ratioP1;P1;durP2;ratioP2;P2;SDS_P1;SDS_P2;PMS_P1;PMS_P2;Temp;Humidity;BMP_temperature;BMP_pressure;BME280_temperature;BME280_humidity;BME280_pressure;Samples;Min_cycle;Max_cycle;Signal;HPM_P1;HPM_P2
2021/07/10 00:01:13;;;;;;;10.97;6.40;;;;;;;24.58;67.50;98412.69;5065306;28;20212;-71
2021/07/10 00:03:40;;;;;;;10.00;5.97;;;;;;;24.53;68.18;98416.22;5062899;28;20714;-71
2021/07/10 00:06:08;;;;;;;7.53;6.03;;;;;;;24.47;67.96;98411.09;5061551;28;20291;-71
2021/07/10 00:08:35;;;;;;;8.80;6.87;;;;;;;24.73;67.65;98407.97;5053969;28;20678;-71
2021/07/10 00:11:05;;;;;;;10.03;6.63;;;;;;;24.33;68.52;98401.88;5051908;28;20214;-71
2021/07/10 00:13:32;;;;;;;9.00;6.07;;;;;;;24.45;68.65;98399.63;5053642;28;20227;-71
2021/07/10 00:16:00;;;;;;;8.00;6.27;;;;;;;24.57;68.38;98394.69;5057359;28;20237;-71
2021/07/10 00:18:27;;;;;;;9.00;6.17;;;;;;;24.72;66.69;98395.41;5060661;28;20209;-71
2021/07/10 00:20:54;;;;;;;10.40;6.47;;;;;;;24.56;67.33;98390.28;5069119;28;20197;-71
2021/07/10 00:23:22;;;;;;;9.43;6.50;;;;;;;24.42;67.69;98392.03;5052972;28;20302;-71
2021/07/10 00:25:49;;;;;;;7.63;5.97;;;;;;;24.71;67.69;98391.06;5053393;28;20469;-71
2021/07/10 00:28:17;;;;;;;7.53;6.27;;;;;;;24.64;66.24;98390.56;5064715;28;20786;-70
2021/07/10 00:30:45;;;;;;;9.23;6.07;;;;;;;24.24;67.71;98396.19;5061750;28;20203;-71
2021/07/10 00:33:12;;;;;;;10.33;6.43;;;;;;;24.11;68.29;98387.78;5065039;28;20225;-71
2021/07/10 00:35:39;;;;;;;7.43;5.73;;;;;;;24.14;69.27;98385.31;5054438;28;20217;-70
2021/07/10 00:38:07;;;;;;;9.00;6.10;;;;;;;23.48;72.18;98374.81;5071150;28;20209;-70
2021/07/10 00:40:34;;;;;;;10.00;6.43;;;;;;;23.80;70.56;98386.19;5057030;28;20207;-71
2021/07/10 00:43:02;;;;;;;8.73;6.33;;;;;;;24.05;68.21;98389.72;5057128;28;20229;-71
2021/07/10 00:45:31;;;;;;;9.37;6.40;;;;;;;23.90;69.52;98378.84;5062636;28;20607;-71
2021/07/10 00:47:58;;;;;;;8.50;6.53;;;;;;;24.16;68.37;98371.38;5060105;28;20557;-71
2021/07/10 00:50:26;;;;;;;8.63;6.10;;;;;;;24.01;70.38;98366.81;5054130;28;20551;-72
2021/07/10 00:52:54;;;;;;;8.23;6.10;;;;;;;24.02;70.02;98359.44;5065391;28;20225;-71
2021/07/10 00:55:22;;;;;;;9.17;6.07;;;;;;;24.29;68.06;98357.97;5064674;28;20231;-69
2021/07/10 00:57:50;;;;;;;8.23;6.27;;;;;;;24.12;67.59;98359.41;5060916;28;20305;-70
2021/07/10 01:00:19;;;;;;;7.13;5.93;;;;;;;23.88;69.89;98351.03;5055124;28;20202;-70
2021/07/10 01:02:50;;;;;;;7.70;5.67;;;;;;;24.08;67.70;98348.25;5055277;28;20723;-71
2021/07/10 01:05:19;;;;;;;8.77;6.73;;;;;;;23.86;67.73;98339.56;5069313;28;20972;-71
2021/07/10 01:07:46;;;;;;;8.17;6.17;;;;;;;23.80;69.46;98340.69;5058458;28;20198;-71
2021/07/10 01:10:16;;;;;;;9.87;6.30;;;;;;;23.67;70.24;98338.50;5052743;28;20210;-71
2021/07/10 01:12:44;;;;;;;7.33;6.20;;;;;;;23.62;69.15;98338.53;5058480;28;20671;-71
2021/07/10 01:15:14;;;;;;;10.27;6.00;;;;;;;23.62;70.95;98340.44;5059648;28;20292;-71
2021/07/10 01:17:44;;;;;;;9.77;5.87;;;;;;;23.55;69.96;98345.34;5060534;28;20737;-72
2021/07/10 01:20:15;;;;;;;9.97;5.77;;;;;;;23.22;70.99;98340.50;5072181;28;20209;-71
2021/07/10 01:22:44;;;;;;;8.77;6.20;;;;;;;23.21;71.85;98349.78;5062431;28;20222;-71
2021/07/10 01:25:14;;;;;;;9.17;7.00;;;;;;;23.26;71.05;98345.13;5053446;28;20239;-71
2021/07/10 01:27:41;;;;;;;9.77;6.37;;;;;;;23.16;72.45;98338.84;5058979;28;20202;-70
2021/07/10 01:30:12;;;;;;;9.63;6.63;;;;;;;23.26;72.54;98338.88;5063670;28;20216;-70
2021/07/10 01:32:40;;;;;;;8.63;6.80;;;;;;;23.12;72.65;98343.22;5053639;28;20667;-70
2021/07/10 01:35:08;;;;;;;9.70;6.90;;;;;;;23.28;73.69;98342.97;5070937;28;20205;-70
2021/07/10 01:37:36;;;;;;;9.00;7.23;;;;;;;23.42;71.64;98337.78;5062591;28;20229;-70
2021/07/10 01:40:06;;;;;;;8.97;6.73;;;;;;;23.61;69.88;98336.91;5070005;28;20235;-69
2021/07/10 01:42:34;;;;;;;8.97;6.40;;;;;;;23.49;71.26;98330.94;5061325;28;20658;-70
2021/07/10 01:45:02;;;;;;;10.87;7.47;;;;;;;23.36;70.60;98331.50;5060641;28;20582;-70
2021/07/10 01:47:29;;;;;;;10.00;6.43;;;;;;;23.11;72.00;98322.53;5065507;28;20201;-70
2021/07/10 01:49:56;;;;;;;8.77;6.80;;;;;;;23.21;70.86;98320.63;5072195;28;20201;-70
2021/07/10 01:52:24;;;;;;;9.97;6.20;;;;;;;23.12;73.51;98311.38;5063397;28;20205;-70
2021/07/10 01:54:51;;;;;;;8.80;6.57;;;;;;;23.11;72.46;98322.53;5052475;28;20751;-70
2021/07/10 01:57:20;;;;;;;8.37;6.33;;;;;;;22.95;73.84;98316.25;5059114;28;20584;-70
2021/07/10 01:59:47;;;;;;;11.80;6.73;;;;;;;22.99;71.41;98317.34;5054092;28;20198;-69
2021/07/10 02:02:14;;;;;;;8.60;6.70;;;;;;;22.86;73.15;98320.59;5053445;28;20206;-70
2021/07/10 02:04:49;;;;;;;8.73;6.07;;;;;;;22.82;73.10;98315.97;5067174;28;20229;-70
2021/07/10 02:07:17;;;;;;;8.07;6.27;;;;;;;22.88;73.23;98321.16;5054152;28;20201;-70
2021/07/10 02:09:44;;;;;;;8.17;6.40;;;;;;;22.84;74.01;98313.78;5062122;28;20209;-70
2021/07/10 02:12:12;;;;;;;9.13;6.33;;;;;;;23.20;71.41;98315.47;5064998;28;20209;-70
2021/07/10 02:14:41;;;;;;;9.53;6.53;;;;;;;22.78;72.89;98310.25;5061275;28;20224;-69
2021/07/10 02:17:08;;;;;;;9.73;6.60;;;;;;;22.94;73.52;98303.72;5054131;28;20248;-70
2021/07/10 02:19:36;;;;;;;7.23;6.07;;;;;;;22.90;72.57;98301.84;5052985;28;20217;-69
2021/07/10 02:22:04;;;;;;;9.20;6.17;;;;;;;22.88;71.78;98299.38;5061591;28;20311;-70
2021/07/10 02:24:31;;;;;;;8.30;6.40;;;;;;;22.84;72.13;98301.00;5069412;28;20682;-70
2021/07/10 02:26:59;;;;;;;7.07;6.00;;;;;;;22.66;73.81;98304.28;5063902;28;20574;-70
2021/07/10 02:29:26;;;;;;;9.77;6.60;;;;;;;22.86;73.41;98296.09;5053177;28;20637;-70
2021/07/10 02:31:55;;;;;;;8.60;6.37;;;;;;;23.05;70.65;98299.91;5069476;28;20204;-70
2021/07/10 02:34:22;;;;;;;7.17;5.43;;;;;;;23.09;71.74;98302.91;5054687;28;20316;-70
2021/07/10 02:36:49;;;;;;;9.33;6.20;;;;;;;23.09;71.09;98297.44;5056810;28;20229;-70
2021/07/10 02:39:17;;;;;;;6.70;5.70;;;;;;;22.96;72.06;98301.53;5055350;28;20230;-70
2021/07/10 02:41:44;;;;;;;11.23;6.43;;;;;;;22.65;73.47;98291.75;5053089;28;20210;-70
2021/07/10 02:44:11;;;;;;;11.67;6.33;;;;;;;23.04;70.22;98294.72;5056329;28;20227;-70
2021/07/10 02:46:39;;;;;;;8.13;5.67;;;;;;;22.88;70.87;98293.09;5051685;28;20193;-70
2021/07/10 02:49:07;;;;;;;9.17;6.87;;;;;;;23.07;70.09;98294.19;5052446;28;20225;-69
2021/07/10 02:51:35;;;;;;;7.90;5.23;;;;;;;22.79;71.80;98298.28;5054558;28;20674;-70
2021/07/10 02:54:02;;;;;;;8.07;5.87;;;;;;;22.55;72.55;98293.66;5069659;28;20722;-70
2021/07/10 02:56:29;;;;;;;7.93;5.63;;;;;;;22.77;72.28;98280.59;5056684;28;20208;-70
2021/07/10 02:58:56;;;;;;;7.63;6.17;;;;;;;23.01;71.36;98289.84;5060900;28;20208;-69
2021/07/10 03:01:24;;;;;;;7.53;5.97;;;;;;;22.83;71.08;98293.09;5060933;28;20682;-70
2021/07/10 03:03:51;;;;;;;7.00;5.80;;;;;;;22.85;71.64;98289.03;5062636;28;20233;-70
2021/07/10 03:06:20;;;;;;;7.97;5.80;;;;;;;22.64;71.25;98289.31;5052918;28;20279;-69
2021/07/10 03:08:47;;;;;;;9.23;5.70;;;;;;;22.31;73.77;98282.44;5062326;28;20198;-70
2021/07/10 03:11:14;;;;;;;10.70;6.07;;;;;;;22.36;73.78;98277.00;5063817;28;20294;-70
2021/07/10 03:13:42;;;;;;;12.23;7.07;;;;;;;22.41;73.14;98282.44;5060130;28;20226;-70
2021/07/10 03:16:09;;;;;;;6.60;5.83;;;;;;;22.34;74.56;98271.00;5053396;28;20219;-70
2021/07/10 03:18:37;;;;;;;9.10;6.37;;;;;;;22.32;73.79;98277.78;5056505;28;20226;-70
2021/07/10 03:21:04;;;;;;;9.03;6.43;;;;;;;22.27;74.18;98270.44;5053944;28;20579;-70
2021/07/10 03:23:33;;;;;;;8.50;6.50;;;;;;;22.07;75.39;98269.56;5062239;28;20232;-70
2021/07/10 03:26:00;;;;;;;8.37;6.53;;;;;;;22.46;74.75;98277.06;5058656;28;20658;-70
2021/07/10 03:28:27;;;;;;;7.93;6.70;;;;;;;22.40;73.01;98277.28;5061974;28;20566;-70
2021/07/10 03:30:54;;;;;;;8.63;6.53;;;;;;;22.18;74.17;98277.50;5051607;28;20208;-70
2021/07/10 03:33:23;;;;;;;8.90;7.17;;;;;;;22.06;75.21;98276.09;5052074;28;20434;-70
2021/07/10 03:35:50;;;;;;;8.10;6.50;;;;;;;22.02;76.75;98275.00;5059557;28;20201;-70
2021/07/10 03:38:18;;;;;;;7.93;7.03;;;;;;;22.32;74.41;98272.34;5060659;28;20715;-70
2021/07/10 03:40:47;;;;;;;7.67;6.20;;;;;;;22.29;73.80;98278.34;5056061;28;20210;-69
2021/07/10 03:43:15;;;;;;;9.00;6.87;;;;;;;22.14;75.06;98270.16;5054696;28;20318;-70
2021/07/10 03:45:43;;;;;;;9.47;7.03;;;;;;;22.19;73.87;98268.25;5052664;28;20277;-70
2021/07/10 03:48:10;;;;;;;10.53;6.83;;;;;;;21.77;77.59;98274.91;5066906;28;20197;-70
2021/07/10 03:50:38;;;;;;;10.40;7.57;;;;;;;21.76;77.06;98278.72;5052186;28;20234;-70
2021/07/10 03:53:05;;;;;;;9.67;7.37;;;;;;;22.00;76.10;98267.09;5054442;28;20263;-70
2021/07/10 03:55:32;;;;;;;9.57;7.10;;;;;;;22.09;75.16;98270.13;5051279;28;20212;-70
2021/07/10 03:58:02;;;;;;;10.20;6.70;;;;;;;22.08;74.82;98272.03;5053800;28;20243;-69
2021/07/10 04:00:29;;;;;;;8.97;7.50;;;;;;;22.19;74.94;98281.03;5057798;28;20251;-70
2021/07/10 04:02:57;;;;;;;11.73;7.60;;;;;;;22.28;74.78;98272.06;5060492;28;20229;-70
2021/07/10 04:05:24;;;;;;;9.37;7.00;;;;;;;22.14;76.03;98275.59;5062187;28;20224;-69
2021/07/10 04:07:52;;;;;;;10.17;7.27;;;;;;;22.36;74.62;98279.72;5051097;28;20198;-70
2021/07/10 04:10:19;;;;;;;11.40;7.63;;;;;;;22.86;72.56;98282.50;5064430;28;20205;-70
2021/07/10 04:12:47;;;;;;;10.27;8.07;;;;;;;22.95;71.61;98278.13;5063474;28;20206;-70
2021/07/10 04:15:17;;;;;;;9.77;7.90;;;;;;;22.69;73.68;98272.97;5063686;28;20252;-69
2021/07/10 04:17:45;;;;;;;10.77;7.07;;;;;;;22.65;73.88;98269.97;5062476;28;20269;-70
2021/07/10 04:20:13;;;;;;;8.17;6.70;;;;;;;22.88;72.99;98272.16;5056033;28;20209;-70
2021/07/10 04:22:41;;;;;;;8.33;6.90;;;;;;;22.81;72.66;98270.81;5062371;28;20210;-70
2021/07/10 04:25:11;;;;;;;9.87;7.57;;;;;;;23.37;69.89;98275.94;5056039;28;20209;-69
2021/07/10 04:27:39;;;;;;;10.03;6.50;;;;;;;23.37;69.98;98280.56;5060182;28;20567;-70
2021/07/10 04:30:08;;;;;;;8.83;6.70;;;;;;;23.19;70.77;98279.25;5063275;28;20665;-70
2021/07/10 04:32:36;;;;;;;7.87;6.50;;;;;;;23.41;70.13;98281.66;5066007;28;20283;-70
2021/07/10 04:35:04;;;;;;;7.57;6.17;;;;;;;23.46;69.50;98284.38;5072678;28;20217;-69
2021/07/10 04:37:32;;;;;;;7.30;6.07;;;;;;;23.70;68.38;98280.75;5070979;28;20689;-70
2021/07/10 04:39:59;;;;;;;11.37;6.90;;;;;;;23.67;68.79;98283.22;5073598;28;20213;-70
2021/07/10 04:42:26;;;;;;;9.07;6.87;;;;;;;23.57;69.45;98281.31;5071134;28;20745;-70
2021/07/10 04:44:55;;;;;;;7.77;6.90;;;;;;;23.73;67.94;98293.00;5065377;28;20297;-70
2021/07/10 04:47:23;;;;;;;7.67;6.43;;;;;;;23.84;67.83;98280.97;5062644;28;20236;-70
2021/07/10 04:49:51;;;;;;;7.93;6.73;;;;;;;23.72;67.84;98286.72;5056999;28;20675;-70
2021/07/10 04:52:19;;;;;;;9.93;6.50;;;;;;;23.97;66.68;98283.13;5054554;28;20213;-70
2021/07/10 04:54:46;;;;;;;9.37;7.30;;;;;;;24.10;66.34;98277.88;5066918;28;20731;-71
2021/07/10 04:57:13;;;;;;;10.37;6.97;;;;;;;23.80;67.43;98279.88;5063161;28;20736;-69
2021/07/10 04:59:40;;;;;;;7.87;6.60;;;;;;;24.36;64.75;98283.97;5059833;28;20232;-70
2021/07/10 05:02:08;;;;;;;7.50;6.57;;;;;;;24.72;63.85;98288.97;5061752;28;20229;-70
2021/07/10 05:04:35;;;;;;;7.27;5.50;;;;;;;24.98;62.38;98290.38;5065951;28;20584;-70
2021/07/10 05:07:04;;;;;;;7.80;6.67;;;;;;;24.81;63.39;98291.88;5058813;28;20211;-70
2021/07/10 05:09:31;;;;;;;7.13;5.53;;;;;;;24.46;65.67;98283.91;5064631;28;20207;-71
2021/07/10 05:11:59;;;;;;;7.67;5.60;;;;;;;25.45;60.53;98301.47;5068456;28;20575;-70
2021/07/10 05:14:26;;;;;;;7.30;5.90;;;;;;;24.71;63.40;98291.97;5062627;28;20318;-70
2021/07/10 05:16:53;;;;;;;8.33;6.47;;;;;;;23.80;66.73;98291.59;5070937;28;20456;-71
2021/07/10 05:19:20;;;;;;;8.70;5.97;;;;;;;23.65;69.00;98288.09;5072401;28;20239;-70
2021/07/10 05:21:48;;;;;;;7.33;5.50;;;;;;;23.47;67.88;98280.53;5061963;28;20220;-69
2021/07/10 05:24:17;;;;;;;7.67;5.77;;;;;;;23.85;67.87;98282.59;5061516;28;20891;-70
2021/07/10 05:26:44;;;;;;;6.67;5.40;;;;;;;23.47;69.32;98283.28;5058894;28;20217;-69
2021/07/10 05:29:11;;;;;;;7.27;5.97;;;;;;;23.19;70.76;98270.25;5054666;28;20208;-70
2021/07/10 05:31:38;;;;;;;6.50;5.20;;;;;;;24.28;67.51;98265.50;5053538;28;20634;-70
2021/07/10 05:34:07;;;;;;;7.77;5.73;;;;;;;24.23;65.68;98273.72;5069873;28;20228;-70
2021/07/10 05:36:34;;;;;;;6.93;5.73;;;;;;;23.74;68.23;98270.91;5063322;28;20210;-69
2021/07/10 05:39:01;;;;;;;9.17;6.37;;;;;;;24.91;63.15;98269.97;5055110;28;20591;-72
2021/07/10 05:41:30;;;;;;;7.97;6.73;;;;;;;23.20;69.04;98269.97;5062697;28;20201;-72
2021/07/10 05:43:57;;;;;;;7.50;5.60;;;;;;;25.38;61.40;98272.84;5066444;28;20235;-70
2021/07/10 05:46:24;;;;;;;8.43;5.93;;;;;;;25.84;59.49;98276.69;5064170;28;20216;-76
2021/07/10 05:48:52;;;;;;;7.97;6.07;;;;;;;25.31;60.26;98277.81;5072185;28;20649;-78
2021/07/10 05:51:19;;;;;;;6.97;4.60;;;;;;;25.93;58.67;98277.69;5064326;28;20653;-73
2021/07/10 05:53:46;;;;;;;6.60;5.60;;;;;;;24.87;62.50;98274.38;5057510;28;20307;-71
2021/07/10 05:56:14;;;;;;;8.77;5.80;;;;;;;26.51;55.74;98290.03;5059898;28;20208;-73
2021/07/10 05:58:42;;;;;;;7.03;4.87;;;;;;;26.45;55.76;98291.22;5053753;28;20231;-78
2021/07/10 06:01:11;;;;;;;7.17;5.23;;;;;;;25.79;57.02;98283.00;5053475;28;20276;-74
2021/07/10 06:03:38;;;;;;;6.77;5.00;;;;;;;25.61;58.55;98274.75;5053479;28;20226;-75
2021/07/10 06:06:05;;;;;;;7.03;5.67;;;;;;;24.42;64.86;98259.13;5057825;28;20233;-76
2021/07/10 06:08:33;;;;;;;8.90;5.27;;;;;;;25.02;62.89;98255.09;5064770;28;20204;-74
2021/07/10 06:11:00;;;;;;;7.10;4.93;;;;;;;25.62;59.83;98266.28;5066494;28;20210;-75
2021/07/10 06:13:27;;;;;;;7.43;4.90;;;;;;;25.08;62.13;98260.25;5066146;28;20306;-76
2021/07/10 06:15:56;;;;;;;6.10;4.83;;;;;;;25.24;61.63;98260.94;5072178;28;20518;-73
2021/07/10 06:18:26;;;;;;;6.72;5.03;;;;;;;27.03;55.56;98268.69;5057090;28;20777;-74
2021/07/10 06:20:53;;;;;;;5.43;4.80;;;;;;;27.32;53.20;98273.94;5054491;28;20202;-75
2021/07/10 06:23:21;;;;;;;5.47;4.67;;;;;;;27.37;52.71;98277.38;5065844;28;20248;-79
2021/07/10 06:25:48;;;;;;;5.23;4.43;;;;;;;27.42;52.55;98277.28;5071650;28;20204;-77
2021/07/10 06:28:16;;;;;;;7.00;5.10;;;;;;;27.91;51.28;98271.16;5058449;28;20198;-77
2021/07/10 06:30:43;;;;;;;5.00;4.20;;;;;;;28.18;50.50;98271.13;5054876;28;20197;-76
2021/07/10 06:33:12;;;;;;;6.37;3.50;;;;;;;28.04;49.23;98282.13;5053010;28;20221;-77
2021/07/10 06:35:39;;;;;;;5.57;3.87;;;;;;;26.93;54.20;98268.03;5061147;28;20213;-80
2021/07/10 06:38:07;;;;;;;5.30;3.33;;;;;;;26.14;57.40;98255.25;5063935;28;20221;-80
2021/07/10 06:40:35;;;;;;;6.13;3.73;;;;;;;26.15;58.60;98253.31;5075076;28;20213;-82
2021/07/10 06:43:02;;;;;;;5.60;3.77;;;;;;;26.58;56.86;98261.19;5065658;28;20721;-77
2021/07/10 06:45:29;;;;;;;4.60;3.50;;;;;;;26.98;53.83;98266.03;5062896;28;20217;-76
2021/07/10 06:48:01;;;;;;;6.70;3.70;;;;;;;26.05;58.30;98253.47;5055292;28;20208;-77
2021/07/10 06:50:30;;;;;;;5.43;3.70;;;;;;;26.12;59.45;98248.44;5062480;28;20206;-76
2021/07/10 06:52:57;;;;;;;5.53;3.80;;;;;;;27.27;54.12;98254.84;5060355;28;20229;-75
2021/07/10 06:55:24;;;;;;;5.43;3.87;;;;;;;27.09;53.51;98261.16;5060960;28;20216;-77
2021/07/10 06:57:52;;;;;;;4.53;4.03;;;;;;;25.84;59.16;98249.34;5066656;28;20221;-79
2021/07/10 07:00:20;;;;;;;6.57;3.37;;;;;;;26.00;59.13;98250.78;5059474;28;20205;-79
2021/07/10 07:02:48;;;;;;;4.43;3.73;;;;;;;25.82;59.82;98252.34;5066389;28;20305;-79
2021/07/10 07:05:15;;;;;;;3.97;3.50;;;;;;;25.94;58.40;98246.50;5064389;28;20220;-76
2021/07/10 07:07:44;;;;;;;5.20;3.60;;;;;;;26.81;53.62;98257.53;5065607;28;20393;-80
2021/07/10 07:10:13;;;;;;;4.07;3.27;;;;;;;26.70;54.60;98245.13;5067939;28;20201;-78
2021/07/10 07:12:41;;;;;;;5.93;4.23;;;;;;;26.05;56.89;98240.59;5066400;28;20206;-79
2021/07/10 07:15:10;;;;;;;3.63;3.17;;;;;;;26.13;56.63;98236.38;5078388;28;20207;-80
2021/07/10 07:17:38;;;;;;;4.67;3.60;;;;;;;27.83;49.75;98237.00;5062411;28;20275;-80
2021/07/10 07:20:07;;;;;;;4.63;3.33;;;;;;;28.49;48.06;98250.13;5054579;28;20212;-80
2021/07/10 07:22:34;;;;;;;4.87;3.47;;;;;;;28.05;47.09;98250.81;5056562;28;20497;-79
2021/07/10 07:25:05;;;;;;;4.07;3.43;;;;;;;28.26;47.73;98240.19;5061659;28;20206;-80
2021/07/10 07:27:32;;;;;;;3.53;3.10;;;;;;;29.18;44.45;98246.81;5059926;28;20694;-79
2021/07/10 07:30:00;;;;;;;6.10;4.27;;;;;;;28.12;47.39;98248.47;5060992;28;20206;-79
2021/07/10 07:32:29;;;;;;;5.03;4.53;;;;;;;26.74;53.25;98232.44;5056630;28;20211;-77
2021/07/10 07:34:56;;;;;;;5.73;3.60;;;;;;;27.68;48.79;98240.06;5060906;28;20246;-73
2021/07/10 07:37:24;;;;;;;6.77;3.57;;;;;;;27.79;51.78;98225.06;5053225;28;20212;-79
2021/07/10 07:39:51;;;;;;;5.47;3.00;;;;;;;28.49;46.57;98231.75;5058122;28;20273;-79
2021/07/10 07:42:20;;;;;;;4.93;3.40;;;;;;;29.80;42.31;98238.19;5059028;28;20231;-79
2021/07/10 07:44:47;;;;;;;5.07;3.50;;;;;;;27.29;50.05;98226.03;5057121;28;20223;-72
2021/07/10 07:47:16;;;;;;;4.10;3.27;;;;;;;27.35;51.68;98224.81;5057111;28;20214;-76
2021/07/10 07:49:44;;;;;;;3.47;2.90;;;;;;;28.06;48.13;98229.66;5057192;28;20278;-72
2021/07/10 07:52:12;;;;;;;4.20;3.07;;;;;;;29.39;44.25;98234.13;5051143;28;20204;-75
2021/07/10 07:54:39;;;;;;;4.23;3.07;;;;;;;29.01;43.29;98236.50;5062455;28;20226;-80
2021/07/10 07:57:07;;;;;;;5.03;3.20;;;;;;;28.55;45.40;98227.75;5064221;28;20643;-76
2021/07/10 07:59:36;;;;;;;3.33;2.47;;;;;;;28.72;44.40;98235.28;5058457;28;20233;-76
2021/07/10 08:02:03;;;;;;;4.43;2.53;;;;;;;29.43;41.87;98233.16;5065216;28;20205;-72
2021/07/10 08:04:30;;;;;;;3.10;2.50;;;;;;;29.32;39.49;98239.25;5065398;28;20239;-72
2021/07/10 08:06:58;;;;;;;2.70;2.37;;;;;;;30.02;37.20;98235.34;5059632;28;20209;-72
2021/07/10 08:09:25;;;;;;;4.80;3.23;;;;;;;31.27;37.30;98234.06;5057444;28;20216;-70
2021/07/10 08:11:52;;;;;;;4.80;2.70;;;;;;;29.55;40.39;98224.34;5057558;28;20214;-71
2021/07/10 08:14:19;;;;;;;4.03;2.70;;;;;;;28.69;44.62;98219.44;5068792;28;20232;-70
2021/07/10 08:16:48;;;;;;;3.03;2.72;;;;;;;29.64;40.96;98226.00;5062875;28;20227;-72
2021/07/10 08:19:16;;;;;;;3.70;2.70;;;;;;;29.95;41.39;98220.44;5062267;28;20230;-72
2021/07/10 08:21:44;;;;;;;4.07;2.87;;;;;;;30.02;41.44;98216.09;5054034;28;20602;-70
2021/07/10 08:24:11;;;;;;;5.53;2.80;;;;;;;29.87;42.00;98211.03;5062687;28;20233;-70
2021/07/10 08:26:39;;;;;;;4.78;3.30;;;;;;;29.59;43.92;98204.13;5051089;28;20197;-71
2021/07/10 08:29:06;;;;;;;4.50;3.30;;;;;;;30.51;41.85;98212.88;5066634;28;20684;-71
2021/07/10 08:31:34;;;;;;;3.25;2.95;;;;;;;28.26;45.41;98208.06;5055748;28;20205;-70
2021/07/10 08:34:03;;;;;;;4.07;3.08;;;;;;;28.22;47.28;98201.56;5057258;28;20320;-72
2021/07/10 08:36:31;;;;;;;4.03;3.03;;;;;;;28.27;47.00;98197.91;5050858;28;20584;-75
2021/07/10 08:38:58;;;;;;;5.63;3.10;;;;;;;29.69;43.94;98214.06;5066000;28;20311;-75
2021/07/10 08:41:26;;;;;;;4.68;2.95;;;;;;;30.09;41.30;98216.41;5061271;28;20205;-72
2021/07/10 08:43:53;;;;;;;4.80;2.60;;;;;;;30.78;39.43;98215.34;5051407;28;20214;-74
2021/07/10 08:46:21;;;;;;;2.78;2.50;;;;;;;29.10;41.17;98217.31;5050636;28;20292;-73
2021/07/10 08:48:48;;;;;;;4.00;2.50;;;;;;;27.66;46.20;98201.16;5059617;28;20244;-73
2021/07/10 08:51:18;;;;;;;6.20;2.63;;;;;;;28.69;44.24;98194.72;5059573;28;20611;-72
2021/07/10 08:53:45;;;;;;;3.33;2.67;;;;;;;30.26;38.33;98212.91;5062863;28;20221;-75
2021/07/10 08:56:12;;;;;;;3.63;2.65;;;;;;;31.33;36.72;98212.66;5064385;28;20765;-72
2021/07/10 08:58:40;;;;;;;3.72;2.78;;;;;;;28.98;41.00;98206.91;5062236;28;20690;-76
2021/07/10 09:01:09;;;;;;;3.85;2.47;;;;;;;29.83;40.80;98204.53;5070400;28;20204;-74
2021/07/10 09:03:36;;;;;;;2.57;2.20;;;;;;;29.11;41.05;98196.94;5073261;28;20221;-77
2021/07/10 09:06:04;;;;;;;4.60;3.00;;;;;;;30.85;36.84;98210.16;5056910;28;20206;-74
2021/07/10 09:08:34;;;;;;;3.28;2.47;;;;;;;29.63;38.72;98207.88;5054421;28;20212;-68
2021/07/10 09:11:03;;;;;;;2.42;2.22;;;;;;;30.08;38.36;98205.72;5057855;28;20209;-71
2021/07/10 09:13:36;;;;;;;3.33;2.40;;;;;;;29.30;40.48;98197.53;5063602;28;20221;-70
2021/07/10 09:16:07;;;;;;;3.83;2.80;;;;;;;29.93;39.59;98195.97;5053865;28;20210;-70
2021/07/10 09:18:43;;;;;;;4.30;3.15;;;;;;;29.14;41.73;98188.88;5068135;28;20214;-71
2021/07/10 09:21:11;;;;;;;3.58;2.50;;;;;;;29.98;39.91;98187.56;5054870;28;20212;-72
2021/07/10 09:23:41;;;;;;;3.42;2.53;;;;;;;28.85;40.65;98190.47;5063328;28;20594;-68
2021/07/10 09:26:20;;;;;;;5.97;3.10;;;;;;;29.28;40.87;98180.50;5054086;28;20197;-71
2021/07/10 09:28:58;;;;;;;3.47;2.42;;;;;;;30.79;36.74;98194.09;5063446;28;20204;-68
2021/07/10 09:31:28;;;;;;;3.28;2.58;;;;;;;28.87;41.57;98183.53;5063380;28;20200;-68
2021/07/10 09:34:00;;;;;;;3.78;2.88;;;;;;;31.09;37.13;98185.59;5065137;28;20236;-68
2021/07/10 09:36:27;;;;;;;3.10;2.80;;;;;;;29.77;38.11;98191.25;5064659;28;20202;-68
2021/07/10 09:38:56;;;;;;;5.43;2.50;;;;;;;30.93;35.25;98201.06;5073032;28;20745;-68
2021/07/10 09:41:29;;;;;;;4.72;2.70;;;;;;;30.76;36.88;98194.78;5065078;28;20210;-68
2021/07/10 09:44:06;;;;;;;3.47;2.60;;;;;;;29.52;38.75;98178.19;5073800;28;20217;-69
2021/07/10 09:46:34;;;;;;;3.25;2.40;;;;;;;29.07;39.06;98183.03;5065043;28;20204;-68
2021/07/10 09:49:32;;;;;;;5.20;2.45;;;;;;;31.90;34.61;98184.31;5065276;28;20201;-68
2021/07/10 09:52:05;;;;;;;2.30;2.10;;;;;;;28.46;40.58;98174.69;5065671;28;20198;-68
2021/07/10 09:54:36;;;;;;;3.80;2.25;;;;;;;28.71;39.72;98167.72;5062602;28;21204;-68
2021/07/10 09:57:09;;;;;;;2.83;2.10;;;;;;;30.49;36.75;98178.53;5053397;28;20215;-68
2021/07/10 09:59:39;;;;;;;2.60;2.40;;;;;;;30.34;37.65;98177.09;5063730;28;20242;-70
2021/07/10 10:02:17;;;;;;;5.85;2.80;;;;;;;30.79;36.79;98175.63;5057760;28;20205;-70
2021/07/10 10:04:45;;;;;;;3.13;2.50;;;;;;;31.79;33.71;98176.75;5070194;28;20216;-70
2021/07/10 10:07:15;;;;;;;3.03;2.80;;;;;;;31.41;36.27;98165.72;5072291;28;20205;-70
2021/07/10 10:09:45;;;;;;;6.47;2.90;;;;;;;30.66;38.63;98157.31;5066020;28;20246;-68
2021/07/10 10:12:15;;;;;;;3.47;2.45;;;;;;;30.30;38.87;98159.59;5056545;28;20206;-68
2021/07/10 10:14:45;;;;;;;3.03;2.60;;;;;;;30.82;37.53;98160.38;5065395;28;20217;-70
2021/07/10 10:17:13;;;;;;;3.42;2.70;;;;;;;29.24;38.59;98158.34;5071085;28;20204;-71
2021/07/10 10:19:42;;;;;;;3.70;2.75;;;;;;;30.02;38.04;98155.50;5061584;28;20218;-70
2021/07/10 10:22:12;;;;;;;3.78;2.47;;;;;;;30.97;36.19;98157.88;5069061;28;20284;-70
2021/07/10 10:24:41;;;;;;;3.70;2.60;;;;;;;31.05;37.59;98147.97;5056960;28;20226;-68
2021/07/10 10:27:11;;;;;;;2.42;2.22;;;;;;;32.27;33.55;98160.50;5056936;28;20208;-70
2021/07/10 10:29:38;;;;;;;2.83;2.60;;;;;;;32.07;32.70;98161.31;5052821;28;20225;-68
2021/07/10 10:32:07;;;;;;;2.80;2.20;;;;;;;32.49;32.53;98160.16;5060019;28;20236;-68
2021/07/10 10:34:35;;;;;;;2.80;2.00;;;;;;;31.65;34.11;98151.31;5052940;28;20214;-71
2021/07/10 10:37:03;;;;;;;2.83;2.03;;;;;;;33.09;31.16;98154.88;5064476;28;20207;-68
2021/07/10 10:39:33;;;;;;;3.20;1.83;;;;;;;31.42;33.01;98163.78;5063553;28;20224;-68
2021/07/10 10:42:06;;;;;;;2.78;2.10;;;;;;;31.64;33.10;98147.75;5072673;28;20202;-69
2021/07/10 10:44:40;;;;;;;2.85;2.10;;;;;;;32.39;32.09;98141.25;5064540;28;20247;-69
2021/07/10 10:47:09;;;;;;;2.30;1.90;;;;;;;32.45;30.57;98143.47;5062155;28;20210;-68
2021/07/10 10:49:42;;;;;;;2.95;2.05;;;;;;;30.09;34.55;98144.00;5055859;28;20225;-68
2021/07/10 10:52:33;;;;;;;2.22;2.00;;;;;;;30.84;34.08;98141.56;5068348;28;20205;-68
2021/07/10 10:55:04;;;;;;;4.22;1.90;;;;;;;30.75;33.54;98141.59;5049477;28;20740;-69
2021/07/10 10:57:34;;;;;;;2.10;1.45;;;;;;;31.49;33.29;98133.69;5071398;28;20197;-68
2021/07/10 11:00:07;;;;;;;2.05;1.80;;;;;;;32.98;29.41;98139.84;5069834;28;20236;-68
2021/07/10 11:02:55;;;;;;;2.53;1.90;;;;;;;32.86;29.66;98132.34;5063504;28;20208;-69
2021/07/10 11:05:51;;;;;;;2.15;1.70;;;;;;;32.10;31.10;98119.19;5068753;28;20209;-69
2021/07/10 11:08:43;;;;;;;2.25;1.70;;;;;;;32.07;31.19;98120.66;5071365;28;20208;-68
2021/07/10 11:11:29;;;;;;;2.65;1.70;;;;;;;32.99;29.40;98127.66;5053381;28;20210;-68
2021/07/10 11:14:10;;;;;;;2.95;1.70;;;;;;;34.45;27.23;98125.22;5063807;28;20224;-70
2021/07/10 11:17:09;;;;;;;2.28;1.65;;;;;;;33.53;29.04;98116.06;5051897;28;20208;-68
2021/07/10 11:19:49;;;;;;;1.77;1.67;;;;;;;33.88;27.11;98117.19;5071191;28;20205;-71
2021/07/10 11:22:56;;;;;;;2.13;1.48;;;;;;;33.05;29.22;98098.59;5071450;28;20218;-68
2021/07/10 11:26:06;;;;;;;2.53;1.50;;;;;;;31.28;29.50;98097.81;5068346;28;20587;-70
2021/07/10 11:28:36;;;;;;;1.48;1.30;;;;;;;31.48;30.10;98091.50;5054233;28;20216;-71
2021/07/10 11:31:06;;;;;;;2.22;1.75;;;;;;;31.70;31.95;98071.88;5067638;28;20562;-71
2021/07/10 11:34:04;;;;;;;3.15;2.20;;;;;;;31.85;31.01;98068.56;5056679;28;20230;-70
2021/07/10 11:36:40;;;;;;;2.90;1.73;;;;;;;29.87;32.65;98072.59;5058260;28;20207;-68
2021/07/10 11:39:50;;;;;;;2.97;2.22;;;;;;;32.26;31.31;98057.50;5051648;28;20221;-70
2021/07/10 11:42:47;;;;;;;3.00;1.95;;;;;;;32.73;30.52;98066.28;5069665;28;20212;-70